createdAt,value
2023-02-20T00:02:01.032Z,22.06
2023-02-20T00:04:27.803Z,20.45
2023-02-20T00:06:54.625Z,17.98
2023-02-20T00:09:21.395Z,17.25
2023-02-20T00:11:48.131Z,19.61
2023-02-20T00:14:14.926Z,20.21
2023-02-20T00:16:41.722Z,20.68
2023-02-20T00:19:08.478Z,20.89
2023-02-20T00:21:35.270Z,21.08
2023-02-20T00:24:02.038Z,21.20
2023-02-20T00:26:28.808Z,21.30
2023-02-20T00:28:55.634Z,21.35
2023-02-20T00:31:22.473Z,21.48
2023-02-20T00:33:49.271Z,21.62
2023-02-20T00:36:16.270Z,21.66
2023-02-20T00:38:43.661Z,21.69
2023-02-20T00:41:12.011Z,21.77
2023-02-20T00:43:38.871Z,22.00
2023-02-20T00:46:05.692Z,22.02
2023-02-20T00:48:32.489Z,21.87
2023-02-20T00:50:59.483Z,18.50
2023-02-20T00:53:26.277Z,17.14
2023-02-20T00:55:53.047Z,18.95
2023-02-20T00:58:19.779Z,20.00
2023-02-20T01:00:46.569Z,20.55
2023-02-20T01:03:14.326Z,20.78
2023-02-20T01:05:41.240Z,20.87
2023-02-20T01:08:07.991Z,21.26
2023-02-20T01:10:34.716Z,21.26
2023-02-20T01:13:01.434Z,21.34
2023-02-20T01:15:28.181Z,21.45
2023-02-20T01:17:54.924Z,21.57
2023-02-20T01:20:21.671Z,21.60
2023-02-20T01:22:48.442Z,21.82
2023-02-20T01:25:15.167Z,21.89
2023-02-20T01:27:41.951Z,21.88
2023-02-20T01:30:08.725Z,21.87
2023-02-20T01:32:35.524Z,22.10
2023-02-20T01:35:02.266Z,19.51
2023-02-20T01:37:29.053Z,17.45
2023-02-20T01:39:55.897Z,18.17
2023-02-20T01:42:22.638Z,19.73
2023-02-20T01:44:49.435Z,20.24
2023-02-20T01:47:16.280Z,20.60
2023-02-20T01:49:43.025Z,20.90
2023-02-20T01:52:09.771Z,21.09
2023-02-20T01:54:36.518Z,21.12
2023-02-20T01:57:03.259Z,21.30
2023-02-20T01:59:30.016Z,21.34
2023-02-20T02:01:56.784Z,21.42
2023-02-20T02:04:23.557Z,21.54
2023-02-20T02:06:50.325Z,21.53
2023-02-20T02:09:17.148Z,21.73
2023-02-20T02:11:43.891Z,21.79
2023-02-20T02:14:10.655Z,21.88
2023-02-20T02:16:37.470Z,21.90
2023-02-20T02:19:04.257Z,21.87
2023-02-20T02:21:31.007Z,19.52
2023-02-20T02:23:57.739Z,17.43
2023-02-20T02:26:24.526Z,17.88
2023-02-20T02:28:51.282Z,19.74
2023-02-20T02:31:18.128Z,20.30
2023-02-20T02:33:45.027Z,20.58
2023-02-20T02:36:12.130Z,20.85
2023-02-20T02:38:39.082Z,21.03
2023-02-20T02:41:05.930Z,21.10
2023-02-20T02:43:32.790Z,21.27
2023-02-20T02:45:59.776Z,21.47
2023-02-20T02:48:26.535Z,21.54
2023-02-20T02:50:53.312Z,21.53
2023-02-20T02:53:20.054Z,21.67
2023-02-20T02:55:46.849Z,21.81
2023-02-20T02:58:13.614Z,21.81
2023-02-20T03:00:40.667Z,21.98
2023-02-20T03:03:07.525Z,21.97
2023-02-20T03:05:39.925Z,21.93
2023-02-20T03:08:14.290Z,21.97
2023-02-20T03:10:41.057Z,18.88
2023-02-20T03:13:07.854Z,17.23
2023-02-20T03:15:35.355Z,18.63
2023-02-20T03:18:05.921Z,19.84
2023-02-20T03:20:32.650Z,20.34
2023-02-20T03:22:59.406Z,20.63
2023-02-20T03:25:26.151Z,20.83
2023-02-20T03:27:52.959Z,21.00
2023-02-20T03:30:19.760Z,21.23
2023-02-20T03:33:05.180Z,21.31
2023-02-20T03:35:50.509Z,21.47
2023-02-20T03:38:35.721Z,21.59
2023-02-20T03:41:21.034Z,21.61
2023-02-20T03:43:47.842Z,21.76
2023-02-20T03:46:14.955Z,21.84
2023-02-20T03:48:42.076Z,21.86
2023-02-20T03:51:08.849Z,21.90
2023-02-20T03:53:35.590Z,22.05
2023-02-20T03:56:02.343Z,19.60
2023-02-20T03:58:29.117Z,17.34
2023-02-20T04:00:55.874Z,18.00
2023-02-20T04:03:22.664Z,19.88
2023-02-20T04:05:49.439Z,20.26
2023-02-20T04:08:16.183Z,20.57
2023-02-20T04:10:42.989Z,20.88
2023-02-20T04:13:09.776Z,20.99
2023-02-20T04:15:36.623Z,21.12
2023-02-20T04:18:03.386Z,21.28
2023-02-20T04:20:30.321Z,21.36
2023-02-20T04:22:57.051Z,21.41
2023-02-20T04:25:23.800Z,21.52
2023-02-20T04:27:50.536Z,21.51
2023-02-20T04:30:17.338Z,21.71
2023-02-20T04:32:44.953Z,21.75
2023-02-20T04:35:11.727Z,21.75
2023-02-20T04:37:38.466Z,21.87
2023-02-20T04:40:05.202Z,21.88
2023-02-20T04:42:31.953Z,21.92
2023-02-20T04:44:58.984Z,19.22
2023-02-20T04:47:25.741Z,17.27
2023-02-20T04:49:52.512Z,18.04
2023-02-20T04:52:19.246Z,19.68
2023-02-20T04:54:45.996Z,20.27
2023-02-20T04:57:12.739Z,20.58
2023-02-20T04:59:39.463Z,20.83
2023-02-20T05:02:06.677Z,21.06
2023-02-20T05:04:34.422Z,21.07
2023-02-20T05:07:01.186Z,21.28
2023-02-20T05:09:28.041Z,21.33
2023-02-20T05:11:54.812Z,21.49
2023-02-20T05:14:21.612Z,21.61
2023-02-20T05:16:49.047Z,21.61
2023-02-20T05:19:15.897Z,21.69
2023-02-20T05:22:01.550Z,21.72
2023-02-20T05:24:28.455Z,21.83
2023-02-20T05:26:55.238Z,22.00
2023-02-20T05:29:21.972Z,21.90
2023-02-20T05:31:48.820Z,22.00
2023-02-20T05:34:15.669Z,20.97
2023-02-20T05:36:42.449Z,17.90
2023-02-20T05:39:09.239Z,17.36
2023-02-20T05:41:35.983Z,19.57
2023-02-20T05:44:02.728Z,20.28
2023-02-20T05:46:29.592Z,20.55
2023-02-20T05:48:56.542Z,20.75
2023-02-20T05:51:23.333Z,21.03
2023-02-20T05:53:50.340Z,21.17
2023-02-20T05:56:17.138Z,21.26
2023-02-20T05:58:44.120Z,21.46
2023-02-20T06:01:10.913Z,21.49
2023-02-20T06:03:38.237Z,21.58
2023-02-20T06:06:05.028Z,21.69
2023-02-20T06:08:31.784Z,21.70
2023-02-20T06:10:58.555Z,21.81
2023-02-20T06:13:25.367Z,21.84
2023-02-20T06:15:52.205Z,21.92
2023-02-20T06:18:18.958Z,21.91
2023-02-20T06:20:45.690Z,22.01
2023-02-20T06:23:12.471Z,20.47
2023-02-20T06:25:39.204Z,17.77
2023-02-20T06:28:06.113Z,18.25
2023-02-20T06:30:32.889Z,19.88
2023-02-20T06:32:59.652Z,20.40
2023-02-20T06:35:26.401Z,20.72
2023-02-20T06:37:53.278Z,21.09
2023-02-20T06:40:20.098Z,21.11
2023-02-20T06:42:46.978Z,21.29
2023-02-20T06:45:15.506Z,21.43
2023-02-20T06:47:42.340Z,21.54
2023-02-20T06:50:09.126Z,21.62
2023-02-20T06:52:35.888Z,21.72
2023-02-20T06:55:02.637Z,21.79
2023-02-20T06:57:29.378Z,21.78
2023-02-20T06:59:56.193Z,21.84
2023-02-20T07:02:23.001Z,21.94
2023-02-20T07:04:49.934Z,22.07
2023-02-20T07:07:16.811Z,19.37
2023-02-20T07:09:44.646Z,17.56
2023-02-20T07:12:11.619Z,18.89
2023-02-20T07:14:38.455Z,20.02
2023-02-20T07:17:05.202Z,20.64
2023-02-20T07:19:31.948Z,20.85
2023-02-20T07:21:58.726Z,21.00
2023-02-20T07:24:25.490Z,21.18
2023-02-20T07:26:52.218Z,21.24
2023-02-20T07:29:18.966Z,21.42
2023-02-20T07:31:45.777Z,21.56
2023-02-20T07:34:12.534Z,21.63
2023-02-20T07:36:39.421Z,21.69
2023-02-20T07:39:06.778Z,21.74
2023-02-20T07:41:35.605Z,21.81
2023-02-20T07:44:02.435Z,21.87
2023-02-20T07:46:33.532Z,22.01
2023-02-20T07:49:00.295Z,20.90
2023-02-20T07:51:27.082Z,17.86
2023-02-20T07:53:54.809Z,17.22
2023-02-20T07:56:21.543Z,19.52
2023-02-20T07:58:48.332Z,20.19
2023-02-20T08:01:15.349Z,20.59
2023-02-20T08:03:42.210Z,20.82
2023-02-20T08:06:09.002Z,21.01
2023-02-20T08:08:35.804Z,21.05
2023-02-20T08:11:09.751Z,21.35
2023-02-20T08:13:37.001Z,21.40
2023-02-20T08:16:03.779Z,21.52
2023-02-20T08:18:30.561Z,21.64
2023-02-20T08:20:57.315Z,21.76
2023-02-20T08:23:24.310Z,21.73
2023-02-20T08:25:51.908Z,21.84
2023-02-20T08:28:18.703Z,21.88
2023-02-20T08:30:45.505Z,21.73
2023-02-20T08:33:12.293Z,18.44
2023-02-20T08:35:39.119Z,17.16
2023-02-20T08:38:05.914Z,18.88
2023-02-20T08:40:32.718Z,20.06
2023-02-20T08:42:59.490Z,20.42
2023-02-20T08:45:26.225Z,20.77
2023-02-20T08:47:53.028Z,20.91
2023-02-20T08:50:19.939Z,21.18
2023-02-20T08:52:46.735Z,21.21
2023-02-20T08:55:13.501Z,21.36
2023-02-20T08:57:40.266Z,21.59
2023-02-20T09:00:07.110Z,21.55
2023-02-20T09:02:33.930Z,21.64
2023-02-20T09:05:00.742Z,21.70
2023-02-20T09:07:27.694Z,21.86
2023-02-20T09:09:54.522Z,21.86
2023-02-20T09:12:21.473Z,21.95
2023-02-20T09:14:48.212Z,21.95
2023-02-20T09:17:14.971Z,19.86
2023-02-20T09:19:41.779Z,17.39
2023-02-20T09:22:08.531Z,17.70
2023-02-20T09:24:36.290Z,19.67
2023-02-20T09:27:03.054Z,20.27
2023-02-20T09:29:29.832Z,20.59
2023-02-20T09:31:56.812Z,20.71
2023-02-20T09:34:23.747Z,21.08
2023-02-20T09:36:50.531Z,21.14
2023-02-20T09:39:17.822Z,21.40
2023-02-20T09:41:44.656Z,21.49
2023-02-20T09:44:11.401Z,21.39
2023-02-20T09:46:38.151Z,21.53
2023-02-20T09:49:06.877Z,21.72
2023-02-20T09:51:33.780Z,21.79
2023-02-20T09:54:00.507Z,21.87
2023-02-20T09:56:27.322Z,21.96
2023-02-20T09:58:54.200Z,22.05
2023-02-20T10:01:20.942Z,19.46
2023-02-20T10:03:47.721Z,17.73
2023-02-20T10:06:14.570Z,18.03
2023-02-20T10:08:41.560Z,19.78
2023-02-20T10:11:10.109Z,20.32
2023-02-20T10:13:36.915Z,20.66
2023-02-20T10:16:03.935Z,21.03
2023-02-20T10:18:30.746Z,20.99
2023-02-20T10:20:57.838Z,21.24
2023-02-20T10:23:24.599Z,21.32
2023-02-20T10:25:51.363Z,21.40
2023-02-20T10:28:18.232Z,21.55
2023-02-20T10:30:45.078Z,21.62
2023-02-20T10:33:11.881Z,21.81
2023-02-20T10:35:38.700Z,21.79
2023-02-20T10:38:07.281Z,21.88
2023-02-20T10:40:34.027Z,21.80
2023-02-20T10:43:01.696Z,18.70
2023-02-20T10:45:28.510Z,17.42
2023-02-20T10:47:55.320Z,18.61
2023-02-20T10:50:22.108Z,19.85
2023-02-20T10:52:48.880Z,20.28
2023-02-20T10:55:15.636Z,20.67
2023-02-20T10:57:42.368Z,20.94
2023-02-20T11:00:09.731Z,21.21
2023-02-20T11:02:36.550Z,21.28
2023-02-20T11:05:03.287Z,21.41
2023-02-20T11:07:30.045Z,21.38
2023-02-20T11:09:56.813Z,21.55
2023-02-20T11:12:23.556Z,21.58
2023-02-20T11:14:50.499Z,21.69
2023-02-20T11:17:17.318Z,21.81
2023-02-20T11:19:44.146Z,21.78
2023-02-20T11:22:10.991Z,21.94
2023-02-20T11:24:37.806Z,22.07
2023-02-20T11:27:04.587Z,19.87
2023-02-20T11:29:31.319Z,18.28
2023-02-20T11:31:58.233Z,18.35
2023-02-20T11:34:25.111Z,19.54
2023-02-20T11:36:51.892Z,20.47
2023-02-20T11:39:18.712Z,20.83
2023-02-20T11:41:45.515Z,20.98
2023-02-20T11:44:13.081Z,21.33
2023-02-20T11:46:39.997Z,21.29
2023-02-20T11:49:07.210Z,21.53
2023-02-20T11:51:33.994Z,21.45
2023-02-20T11:54:00.770Z,21.71
2023-02-20T11:56:27.507Z,21.82
2023-02-20T11:58:54.258Z,21.80
2023-02-20T12:01:21.087Z,21.89
2023-02-20T12:03:50.271Z,22.01
2023-02-20T12:06:17.892Z,21.40
2023-02-20T12:08:44.771Z,18.50
2023-02-20T12:11:11.750Z,18.21
2023-02-20T12:13:38.514Z,19.93
2023-02-20T12:16:05.391Z,20.43
2023-02-20T12:18:32.154Z,20.81
2023-02-20T12:20:59.395Z,21.15
2023-02-20T12:23:26.144Z,21.24
2023-02-20T12:25:52.927Z,21.35
2023-02-20T12:28:19.664Z,21.48
2023-02-20T12:30:47.672Z,21.66
2023-02-20T12:33:14.394Z,21.67
2023-02-20T12:35:41.647Z,21.76
2023-02-20T12:38:08.461Z,21.73
2023-02-20T12:40:35.208Z,21.87
2023-02-20T12:43:01.974Z,21.92
2023-02-20T12:45:28.814Z,21.18
2023-02-20T12:47:55.537Z,18.46
2023-02-20T12:50:22.313Z,17.29
2023-02-20T12:52:50.665Z,19.16
2023-02-20T12:55:19.220Z,20.29
2023-02-20T12:57:46.165Z,20.60
2023-02-20T13:00:13.204Z,20.86
2023-02-20T13:02:42.821Z,21.12
2023-02-20T13:05:09.890Z,21.24
2023-02-20T13:07:36.635Z,21.29
2023-02-20T13:10:03.395Z,21.44
2023-02-20T13:12:30.194Z,21.51
2023-02-20T13:14:56.971Z,21.76
2023-02-20T13:17:23.829Z,21.66
2023-02-20T13:19:50.618Z,21.78
2023-02-20T13:22:17.386Z,21.88
2023-02-20T13:24:44.137Z,22.03
2023-02-20T13:27:11.091Z,21.79
2023-02-20T13:29:37.908Z,19.28
2023-02-20T13:32:04.881Z,18.10
2023-02-20T13:34:31.839Z,19.13
2023-02-20T13:36:58.680Z,19.81
2023-02-20T13:39:25.511Z,20.75
2023-02-20T13:41:52.259Z,20.86
2023-02-20T13:44:19.032Z,21.04
2023-02-20T13:46:45.806Z,21.20
2023-02-20T13:49:12.555Z,21.38
2023-02-20T13:51:39.967Z,21.39
2023-02-20T13:54:06.711Z,21.59
2023-02-20T13:56:34.336Z,21.72
2023-02-20T13:59:01.197Z,21.70
2023-02-20T14:01:27.937Z,21.87
2023-02-20T14:03:54.689Z,21.82
2023-02-20T14:06:21.958Z,21.89
2023-02-20T14:08:48.688Z,20.30
2023-02-20T14:11:15.497Z,18.46
2023-02-20T14:13:43.951Z,17.96
2023-02-20T14:16:10.781Z,19.63
2023-02-20T14:18:37.564Z,20.62
2023-02-20T14:21:04.354Z,20.67
2023-02-20T14:23:31.179Z,21.05
2023-02-20T14:26:00.700Z,21.16
2023-02-20T14:28:27.926Z,21.30
2023-02-20T14:30:54.690Z,21.37
2023-02-20T14:33:21.751Z,21.53
2023-02-20T14:35:48.675Z,21.68
2023-02-20T14:38:15.450Z,21.72
2023-02-20T14:40:42.269Z,21.80
2023-02-20T14:43:09.027Z,21.92
2023-02-20T14:45:35.888Z,21.93
2023-02-20T14:48:04.825Z,21.95
2023-02-20T14:50:31.767Z,19.53
2023-02-20T14:52:58.509Z,18.14
2023-02-20T14:55:25.255Z,18.85
2023-02-20T14:57:52.125Z,19.77
2023-02-20T15:00:20.522Z,20.56
2023-02-20T15:02:47.324Z,20.81
2023-02-20T15:05:16.374Z,20.97
2023-02-20T15:07:43.130Z,21.10
2023-02-20T15:10:09.881Z,21.18
2023-02-20T15:12:36.637Z,21.41
2023-02-20T15:15:03.422Z,21.65
2023-02-20T15:17:30.181Z,21.57
2023-02-20T15:19:56.987Z,21.86
2023-02-20T15:22:23.730Z,21.77
2023-02-20T15:24:50.582Z,21.82
2023-02-20T15:27:17.478Z,21.92
2023-02-20T15:29:44.267Z,22.02
2023-02-20T15:32:11.035Z,20.90
2023-02-20T15:34:37.871Z,18.36
2023-02-20T15:37:04.626Z,17.19
2023-02-20T15:39:31.383Z,19.23
2023-02-20T15:44:26.320Z,20.60
2023-02-20T15:46:53.066Z,20.97
2023-02-20T15:49:21.023Z,21.06
2023-02-20T15:51:48.009Z,21.20
2023-02-20T15:54:15.430Z,21.44
2023-02-20T15:56:42.188Z,21.48
2023-02-20T15:59:09.040Z,21.65
2023-02-20T16:01:35.842Z,21.60
2023-02-20T16:04:02.703Z,21.72
2023-02-20T16:06:29.585Z,21.78
2023-02-20T16:08:56.485Z,21.86
2023-02-20T16:11:23.323Z,22.01
2023-02-20T16:13:50.081Z,21.64
2023-02-20T16:16:23.872Z,18.77
2023-02-20T16:18:54.268Z,17.01
2023-02-20T16:21:21.146Z,18.81
2023-02-20T16:23:49.950Z,19.84
2023-02-20T16:26:16.763Z,20.40
2023-02-20T16:28:43.521Z,20.78
2023-02-20T16:31:10.374Z,20.86
2023-02-20T16:33:37.193Z,21.18
2023-02-20T16:36:04.314Z,21.16
2023-02-20T16:38:32.172Z,21.38
2023-02-20T16:41:00.198Z,21.59
2023-02-20T16:43:27.092Z,21.61
2023-02-20T16:45:53.830Z,21.68
2023-02-20T16:48:20.613Z,21.76
2023-02-20T16:50:47.461Z,21.87
2023-02-20T16:53:14.222Z,21.85
2023-02-20T16:55:48.504Z,21.89
2023-02-20T16:58:15.272Z,22.01
2023-02-20T17:00:54.947Z,19.45
2023-02-20T17:03:23.232Z,17.24
2023-02-20T17:05:49.982Z,18.30
2023-02-20T17:08:16.729Z,19.71
2023-02-20T17:10:43.551Z,20.48
2023-02-20T17:13:10.288Z,20.88
2023-02-20T17:15:37.799Z,20.97
2023-02-20T17:18:04.622Z,21.01
2023-02-20T17:20:31.376Z,21.30
2023-02-20T17:23:05.025Z,21.33
2023-02-20T17:25:32.131Z,21.57
2023-02-20T17:27:59.343Z,21.54
2023-02-20T17:30:26.181Z,21.58
2023-02-20T17:32:53.167Z,21.64
2023-02-20T17:35:20.019Z,21.85
2023-02-20T17:37:46.761Z,21.97
2023-02-20T17:40:13.528Z,20.76
2023-02-20T17:42:40.917Z,17.71
2023-02-20T17:45:07.738Z,16.90
2023-02-20T17:47:34.648Z,19.03
2023-02-20T17:50:01.441Z,20.03
2023-02-20T17:52:28.742Z,20.51
2023-02-20T17:54:55.574Z,20.70
2023-02-20T17:57:22.432Z,21.00
2023-02-20T17:59:49.377Z,21.11
2023-02-20T18:02:16.135Z,21.16
2023-02-20T18:04:42.998Z,21.35
2023-02-20T18:07:10.416Z,21.34
2023-02-20T18:09:37.240Z,21.50
2023-02-20T18:12:04.120Z,21.64
2023-02-20T18:14:30.890Z,21.75
2023-02-20T18:16:57.799Z,21.84
2023-02-20T18:19:24.826Z,21.79
2023-02-20T18:21:51.728Z,21.91
2023-02-20T18:24:18.509Z,21.90
2023-02-20T18:26:45.347Z,21.98
2023-02-20T18:29:12.099Z,18.97
2023-02-20T18:31:38.932Z,17.71
2023-02-20T18:34:05.724Z,19.20
2023-02-20T18:36:32.541Z,20.29
2023-02-20T18:38:59.314Z,20.63
2023-02-20T18:41:26.127Z,20.89
2023-02-20T18:43:52.890Z,21.16
2023-02-20T18:46:19.658Z,21.27
2023-02-20T18:48:46.469Z,21.46
2023-02-20T18:51:13.836Z,21.62
2023-02-20T18:53:40.595Z,21.62
2023-02-20T18:56:07.350Z,21.78
2023-02-20T18:58:34.099Z,21.74
2023-02-20T19:01:01.383Z,21.94
2023-02-20T19:03:28.169Z,21.91
2023-02-20T19:05:55.646Z,22.03
2023-02-20T19:08:23.342Z,19.79
2023-02-20T19:10:50.180Z,17.49
2023-02-20T19:13:16.924Z,18.22
2023-02-20T19:15:43.792Z,19.90
2023-02-20T19:18:10.740Z,20.38
2023-02-20T19:20:37.500Z,20.66
2023-02-20T19:23:04.726Z,20.98
2023-02-20T19:25:31.597Z,21.16
2023-02-20T19:27:58.402Z,21.24
2023-02-20T19:30:25.255Z,21.41
2023-02-20T19:32:52.057Z,21.54
2023-02-20T19:35:18.866Z,21.61
2023-02-20T19:37:45.671Z,21.66
2023-02-20T19:40:12.412Z,21.71
2023-02-20T19:42:39.418Z,21.93
2023-02-20T19:45:06.228Z,21.87
2023-02-20T19:47:32.985Z,21.96
2023-02-20T19:49:59.812Z,21.93
2023-02-20T19:52:26.550Z,18.68
2023-02-20T19:54:54.797Z,17.03
2023-02-20T19:57:21.536Z,18.52
2023-02-20T19:59:48.288Z,19.97
2023-02-20T20:02:15.226Z,20.33
2023-02-20T20:04:42.023Z,20.60
2023-02-20T20:07:09.056Z,20.93
2023-02-20T20:09:37.713Z,21.14
2023-02-20T20:12:04.903Z,21.28
2023-02-20T20:14:31.675Z,21.38
2023-02-20T20:16:58.510Z,21.43
2023-02-20T20:19:25.358Z,21.59
2023-02-20T20:21:52.146Z,21.64
2023-02-20T20:24:18.908Z,21.67
2023-02-20T20:26:45.666Z,21.86
2023-02-20T20:29:12.424Z,21.93
2023-02-20T20:31:39.342Z,22.05
2023-02-20T20:34:06.150Z,21.98
2023-02-20T20:36:33.004Z,20.03
2023-02-20T20:38:59.783Z,17.99
2023-02-20T20:41:28.280Z,17.58
2023-02-20T20:44:04.161Z,19.59
2023-02-20T20:46:31.382Z,20.39
2023-02-20T20:48:58.128Z,20.56
2023-02-20T20:51:24.899Z,20.87
2023-02-20T20:53:51.670Z,21.06
2023-02-20T20:56:18.408Z,21.24
2023-02-20T20:58:45.300Z,21.27
2023-02-20T21:01:12.440Z,21.44
2023-02-20T21:03:39.354Z,21.54
2023-02-20T21:06:06.110Z,21.63
2023-02-20T21:08:33.733Z,21.72
2023-02-20T21:11:00.525Z,21.85
2023-02-20T21:13:27.323Z,21.92
2023-02-20T21:15:54.128Z,21.99
2023-02-20T21:18:20.877Z,22.03
2023-02-20T21:20:47.628Z,22.01
2023-02-20T21:23:14.382Z,19.30
2023-02-20T21:25:41.740Z,17.45
2023-02-20T21:28:08.577Z,18.16
2023-02-20T21:30:35.403Z,19.86
2023-02-20T21:33:02.224Z,20.26
2023-02-20T21:35:28.976Z,20.67
2023-02-20T21:37:56.207Z,20.91
2023-02-20T21:40:23.001Z,21.07
2023-02-20T21:43:08.475Z,21.30
2023-02-20T21:45:36.266Z,21.44
2023-02-20T21:48:04.381Z,21.51
2023-02-20T21:50:31.217Z,21.47
2023-02-20T21:52:57.996Z,21.72
2023-02-20T21:55:24.751Z,21.86
2023-02-20T21:57:51.996Z,22.03
2023-02-20T22:00:18.701Z,21.87
2023-02-20T22:02:45.469Z,21.69
2023-02-20T22:05:12.249Z,18.62
2023-02-20T22:07:57.636Z,17.51
2023-02-20T22:10:43.060Z,18.91
2023-02-20T22:13:28.315Z,20.11
2023-02-20T22:16:13.759Z,20.67
2023-02-20T22:18:59.049Z,20.80
2023-02-20T22:21:44.368Z,21.07
2023-02-20T22:24:37.828Z,21.12
2023-02-20T22:27:24.200Z,21.29
2023-02-20T22:30:09.607Z,21.37
2023-02-20T22:32:55.370Z,21.42
2023-02-20T22:35:40.741Z,21.70
2023-02-20T22:38:25.985Z,21.66
2023-02-20T22:41:11.506Z,21.62
2023-02-20T22:43:57.190Z,21.79
2023-02-20T22:46:42.645Z,21.94
2023-02-20T22:49:28.164Z,21.99
2023-02-20T22:52:13.374Z,18.61
2023-02-20T22:55:04.815Z,16.88
2023-02-20T22:57:50.642Z,19.20
2023-02-20T23:00:35.987Z,20.11
2023-02-20T23:03:21.567Z,20.57
2023-02-20T23:06:17.089Z,20.76
2023-02-20T23:09:03.340Z,21.07
2023-02-20T23:11:48.580Z,21.21
2023-02-20T23:14:34.042Z,21.33
2023-02-20T23:17:34.274Z,21.39
2023-02-20T23:20:20.690Z,21.61
2023-02-20T23:23:06.092Z,21.69
2023-02-20T23:25:51.312Z,21.60
2023-02-20T23:28:37.368Z,21.74
2023-02-20T23:31:23.423Z,21.89
2023-02-20T23:34:08.784Z,21.96
2023-02-20T23:36:54.026Z,22.05
2023-02-20T23:39:39.343Z,18.97
2023-02-20T23:42:24.650Z,17.03
2023-02-20T23:45:10.244Z,19.02
2023-02-20T23:47:55.728Z,20.03
2023-02-20T23:50:41.131Z,20.65
2023-02-20T23:53:26.430Z,20.82
2023-02-20T23:56:11.600Z,20.93
2023-02-20T23:58:56.804Z,21.09
